createdAt,value
2023-03-01T00:01:21.162Z,-0.50
2023-03-01T00:03:49.513Z,-0.40
2023-03-01T00:06:18.261Z,-0.40
2023-03-01T00:08:46.434Z,-0.40
2023-03-01T00:11:17.854Z,-0.60
2023-03-01T00:13:47.377Z,-0.70
2023-03-01T00:16:19.159Z,-0.70
2023-03-01T00:18:47.539Z,-0.60
2023-03-01T00:21:15.958Z,-0.50
2023-03-01T00:23:44.095Z,-0.50
2023-03-01T00:26:15.310Z,-0.50
2023-03-01T00:28:44.916Z,-0.50
2023-03-01T00:31:16.164Z,-0.60
2023-03-01T00:33:46.673Z,-0.70
2023-03-01T00:36:17.024Z,-0.80
2023-03-01T00:38:46.957Z,-0.90
2023-03-01T00:41:17.043Z,-0.90
2023-03-01T00:43:46.620Z,-0.80
2023-03-01T00:46:17.453Z,-0.70
2023-03-01T00:48:47.779Z,-0.60
2023-03-01T00:51:18.347Z,-0.50
2023-03-01T00:53:47.694Z,-0.60
2023-03-01T00:56:16.926Z,-0.70
2023-03-01T00:58:45.829Z,-0.70
2023-03-01T01:01:19.148Z,-0.80
2023-03-01T01:03:51.223Z,-0.80
2023-03-01T01:06:21.415Z,-1.00
2023-03-01T01:08:50.153Z,-1.10
2023-03-01T01:11:18.497Z,-1.10
2023-03-01T01:13:47.519Z,-1.20
2023-03-01T01:16:19.515Z,-1.10
2023-03-01T01:18:49.556Z,-1.20
2023-03-01T01:21:19.304Z,-1.30
2023-03-01T01:23:48.598Z,-1.40
2023-03-01T01:26:18.668Z,-1.40
2023-03-01T01:28:47.235Z,-1.40
2023-03-01T01:31:15.706Z,-1.40
2023-03-01T01:33:44.453Z,-1.50
2023-03-01T01:36:14.263Z,-1.50
2023-03-01T01:38:43.411Z,-1.40
2023-03-01T01:41:13.657Z,-1.40
2023-03-01T01:43:44.189Z,-1.40
2023-03-01T01:46:23.213Z,-1.50
2023-03-01T01:48:55.914Z,-1.50
2023-03-01T01:51:29.932Z,-1.60
2023-03-01T01:54:02.993Z,-1.60
2023-03-01T01:56:32.153Z,-1.60
2023-03-01T01:59:00.692Z,-1.70
2023-03-01T02:01:28.966Z,-1.70
2023-03-01T02:03:57.151Z,-1.70
2023-03-01T02:06:32.509Z,-1.70
2023-03-01T02:09:04.495Z,-1.70
2023-03-01T02:11:34.459Z,-1.80
2023-03-01T02:14:02.756Z,-1.80
2023-03-01T02:16:32.431Z,-1.90
2023-03-01T02:19:01.490Z,-2.00
2023-03-01T02:21:42.829Z,-1.90
2023-03-01T02:24:27.949Z,-1.90
2023-03-01T02:26:59.939Z,-1.90
2023-03-01T02:29:31.324Z,-2.00
2023-03-01T02:32:02.271Z,-2.00
2023-03-01T02:34:33.172Z,-1.90
2023-03-01T02:37:05.699Z,-1.80
2023-03-01T02:39:42.852Z,-1.80
2023-03-01T02:42:14.498Z,-1.80
2023-03-01T02:44:44.168Z,-1.80
2023-03-01T02:47:12.194Z,-1.90
2023-03-01T02:49:40.475Z,-1.90
2023-03-01T02:52:41.163Z,-1.70
2023-03-01T02:55:12.997Z,-1.80
2023-03-01T02:57:44.152Z,-1.80
2023-03-01T03:00:20.304Z,-1.90
2023-03-01T03:02:50.129Z,-1.90
2023-03-01T03:05:24.994Z,-2.00
2023-03-01T03:07:56.572Z,-2.00
2023-03-01T03:10:27.878Z,-2.10
2023-03-01T03:12:57.953Z,-2.20
2023-03-01T03:15:30.152Z,-2.20
2023-03-01T03:18:00.066Z,-2.20
2023-03-01T03:20:29.974Z,-2.10
2023-03-01T03:23:02.636Z,-2.10
2023-03-01T03:25:31.753Z,-2.20
2023-03-01T03:28:00.343Z,-2.20
2023-03-01T03:30:32.685Z,-2.20
2023-03-01T03:33:01.622Z,-2.30
2023-03-01T03:35:32.083Z,-2.30
2023-03-01T03:38:04.511Z,-2.30
2023-03-01T03:40:34.283Z,-2.30
2023-03-01T03:43:02.593Z,-2.30
2023-03-01T03:45:34.286Z,-2.20
2023-03-01T03:48:03.179Z,-2.20
2023-03-01T03:50:31.486Z,-2.20
2023-03-01T03:52:59.682Z,-2.20
2023-03-01T03:55:31.662Z,-2.30
2023-03-01T03:58:03.399Z,-2.30
2023-03-01T04:00:33.319Z,-2.30
2023-03-01T04:03:02.096Z,-2.30
2023-03-01T04:05:30.930Z,-2.40
2023-03-01T04:08:08.103Z,-2.40
2023-03-01T04:10:38.487Z,-2.40
2023-03-01T04:13:07.302Z,-2.40
2023-03-01T04:15:37.492Z,-2.50
2023-03-01T04:18:06.216Z,-2.40
2023-03-01T04:20:36.374Z,-2.40
2023-03-01T04:23:14.097Z,-2.40
2023-03-01T04:25:44.722Z,-2.50
2023-03-01T04:28:12.838Z,-2.40
2023-03-01T04:30:42.537Z,-2.40
2023-03-01T04:33:12.148Z,-2.40
2023-03-01T04:35:41.638Z,-2.40
2023-03-01T04:38:09.993Z,-2.40
2023-03-01T04:40:38.518Z,-2.40
2023-03-01T04:43:07.393Z,-2.40
2023-03-01T04:45:36.975Z,-2.40
2023-03-01T04:48:07.427Z,-2.40
2023-03-01T04:50:35.908Z,-2.40
2023-03-01T04:53:04.172Z,-2.40
2023-03-01T04:55:32.770Z,-2.40
2023-03-01T04:58:01.024Z,-2.40
2023-03-01T05:00:29.306Z,-2.40
2023-03-01T05:03:00.477Z,-2.40
2023-03-01T05:05:32.554Z,-2.20
2023-03-01T05:08:02.459Z,-2.30
2023-03-01T05:10:32.504Z,-2.20
2023-03-01T05:13:01.719Z,-2.30
2023-03-01T05:15:31.238Z,-2.30
2023-03-01T05:18:01.148Z,-2.30
2023-03-01T05:20:31.419Z,-2.20
2023-03-01T05:23:06.220Z,-2.30
2023-03-01T05:25:36.086Z,-2.40
2023-03-01T05:28:06.842Z,-2.50
2023-03-01T05:30:35.970Z,-2.40
2023-03-01T05:33:04.658Z,-2.40
2023-03-01T05:35:35.320Z,-2.50
2023-03-01T05:38:03.323Z,-2.40
2023-03-01T05:40:31.529Z,-2.50
2023-03-01T05:42:59.591Z,-2.50
2023-03-01T05:45:29.137Z,-2.60
2023-03-01T05:47:57.343Z,-2.60
2023-03-01T05:50:27.321Z,-2.60
2023-03-01T05:53:01.504Z,-2.60
2023-03-01T05:55:31.729Z,-2.60
2023-03-01T05:58:02.137Z,-2.60
2023-03-01T06:00:31.800Z,-2.70
2023-03-01T06:03:00.862Z,-2.60
2023-03-01T06:05:29.920Z,-2.50
2023-03-01T06:08:01.512Z,-2.50
2023-03-01T06:10:30.119Z,-2.40
2023-03-01T06:12:58.751Z,-2.30
2023-03-01T06:15:27.267Z,-2.20
2023-03-01T06:17:59.685Z,-2.10
2023-03-01T06:20:32.828Z,-2.10
2023-03-01T06:23:02.224Z,-2.10
2023-03-01T06:25:30.576Z,-2.10
2023-03-01T06:27:58.580Z,-2.10
2023-03-01T06:30:28.384Z,-2.10
2023-03-01T06:33:04.000Z,-2.10
2023-03-01T06:35:32.633Z,-2.10
2023-03-01T06:38:03.274Z,-2.10
2023-03-01T06:40:32.285Z,-2.00
2023-03-01T06:43:00.858Z,-1.90
2023-03-01T06:45:28.985Z,-1.10
2023-03-01T06:48:05.326Z,-0.30
2023-03-01T06:50:34.043Z,0.40
2023-03-01T06:53:04.520Z,0.90
2023-03-01T06:55:32.718Z,1.70
2023-03-01T06:58:01.627Z,2.30
2023-03-01T07:00:29.894Z,2.50
2023-03-01T07:03:02.911Z,1.50
2023-03-01T07:05:31.292Z,0.80
2023-03-01T07:07:59.387Z,0.40
2023-03-01T07:10:31.092Z,0.00
2023-03-01T07:12:59.991Z,-0.20
2023-03-01T07:15:29.422Z,-0.10
2023-03-01T07:18:00.028Z,1.20
2023-03-01T07:20:28.074Z,2.80
2023-03-01T07:22:57.375Z,3.90
2023-03-01T07:25:25.465Z,3.80
2023-03-01T07:27:55.563Z,3.40
2023-03-01T07:30:26.786Z,3.40
2023-03-01T07:32:55.841Z,3.50
2023-03-01T07:35:24.804Z,4.60
2023-03-01T07:37:52.852Z,5.40
2023-03-01T07:40:21.443Z,5.70
2023-03-01T07:42:49.478Z,4.90
2023-03-01T07:45:18.917Z,5.80
2023-03-01T07:47:46.882Z,6.70
2023-03-01T07:50:16.587Z,7.00
2023-03-01T07:52:46.743Z,6.80
2023-03-01T07:55:14.814Z,7.40
2023-03-01T07:57:42.784Z,7.50
2023-03-01T08:00:13.474Z,7.50
2023-03-01T08:02:43.055Z,7.10
2023-03-01T08:05:11.894Z,7.70
2023-03-01T08:07:39.927Z,7.60
2023-03-01T08:10:08.669Z,7.50
2023-03-01T08:12:36.626Z,6.90
2023-03-01T08:15:05.030Z,7.60
2023-03-01T08:17:32.999Z,7.60
2023-03-01T08:20:03.202Z,6.00
2023-03-01T08:22:31.299Z,5.30
2023-03-01T08:24:59.285Z,5.20
2023-03-01T08:27:27.348Z,5.30
2023-03-01T08:29:55.646Z,5.90
2023-03-01T08:32:23.757Z,6.50
2023-03-01T08:34:51.874Z,6.40
2023-03-01T08:37:21.242Z,6.10
2023-03-01T08:39:49.708Z,6.90
2023-03-01T08:42:17.799Z,7.70
2023-03-01T08:44:46.960Z,7.50
2023-03-01T08:47:15.836Z,7.30
2023-03-01T08:49:43.783Z,7.40
2023-03-01T08:52:11.784Z,7.40
2023-03-01T08:54:41.165Z,7.80
2023-03-01T08:57:10.608Z,8.10
2023-03-01T08:59:39.128Z,7.90
2023-03-01T09:02:07.909Z,7.20
2023-03-01T09:04:36.007Z,6.80
2023-03-01T09:07:04.029Z,6.90
2023-03-01T09:09:32.143Z,6.60
2023-03-01T09:12:01.525Z,6.00
2023-03-01T09:14:29.940Z,6.00
2023-03-01T09:16:58.312Z,5.70
2023-03-01T09:19:27.527Z,5.90
2023-03-01T09:21:56.853Z,6.20
2023-03-01T09:24:26.372Z,5.40
2023-03-01T09:26:56.531Z,5.20
2023-03-01T09:29:26.891Z,7.00
2023-03-01T09:31:56.552Z,7.10
2023-03-01T09:34:25.136Z,5.90
2023-03-01T09:36:53.246Z,5.60
2023-03-01T09:39:22.290Z,5.60
2023-03-01T09:41:57.901Z,6.10
2023-03-01T09:44:38.033Z,6.20
2023-03-01T09:47:07.297Z,6.60
2023-03-01T09:49:38.821Z,7.20
2023-03-01T09:52:22.098Z,8.00
2023-03-01T09:54:55.047Z,7.60
2023-03-01T09:57:30.278Z,7.70
2023-03-01T10:00:12.630Z,8.30
2023-03-01T10:02:45.655Z,8.70
2023-03-01T10:05:29.583Z,8.30
2023-03-01T10:08:08.080Z,8.00
2023-03-01T10:10:39.235Z,7.60
2023-03-01T10:13:16.187Z,8.30
2023-03-01T10:15:50.112Z,8.70
2023-03-01T10:18:22.381Z,8.60
2023-03-01T10:20:55.646Z,8.50
2023-03-01T10:23:25.806Z,8.80
2023-03-01T10:26:06.492Z,9.00
2023-03-01T10:28:49.180Z,9.00
2023-03-01T10:31:24.320Z,9.60
2023-03-01T10:33:55.832Z,10.00
2023-03-01T10:36:24.164Z,9.00
2023-03-01T10:38:55.221Z,9.50
2023-03-01T10:41:25.294Z,10.10
2023-03-01T10:43:55.574Z,10.50
2023-03-01T10:46:30.871Z,11.10
2023-03-01T10:49:14.085Z,10.50
2023-03-01T10:51:43.344Z,10.80
2023-03-01T10:54:19.693Z,10.80
2023-03-01T10:56:50.586Z,10.30
2023-03-01T10:59:27.381Z,11.30
2023-03-01T11:02:26.189Z,12.20
2023-03-01T11:05:00.362Z,11.70
2023-03-01T11:07:29.043Z,11.80
2023-03-01T11:09:57.026Z,12.30
2023-03-01T11:12:26.285Z,11.70
2023-03-01T11:14:56.590Z,11.70
2023-03-01T11:17:36.611Z,12.10
2023-03-01T11:20:20.894Z,12.00
2023-03-01T11:22:52.639Z,11.20
2023-03-01T11:25:25.730Z,12.50
2023-03-01T11:27:55.435Z,13.10
2023-03-01T11:30:28.279Z,12.50
2023-03-01T11:33:18.376Z,12.00
2023-03-01T11:35:52.260Z,11.80
2023-03-01T11:38:24.884Z,12.10
2023-03-01T11:41:00.303Z,12.00
2023-03-01T11:43:37.844Z,11.70
2023-03-01T11:46:30.435Z,12.40
2023-03-01T11:49:14.437Z,12.50
2023-03-01T11:51:51.124Z,12.60
2023-03-01T11:54:31.200Z,11.70
2023-03-01T11:57:05.873Z,11.90
2023-03-01T11:59:57.057Z,12.30
2023-03-01T12:02:59.456Z,12.30
2023-03-01T12:06:00.213Z,12.10
2023-03-01T12:08:36.862Z,12.00
2023-03-01T12:11:15.804Z,12.70
2023-03-01T12:14:10.805Z,12.60
2023-03-01T12:17:08.458Z,13.50
2023-03-01T12:19:56.011Z,13.00
2023-03-01T12:22:32.788Z,13.10
2023-03-01T12:25:13.342Z,13.20
2023-03-01T12:27:56.422Z,13.00
2023-03-01T12:30:37.372Z,12.40
2023-03-01T12:33:19.623Z,12.10
2023-03-01T12:36:09.408Z,12.10
2023-03-01T12:38:44.554Z,11.60
2023-03-01T12:41:49.009Z,12.10
2023-03-01T12:44:45.150Z,12.20
2023-03-01T12:47:24.919Z,12.80
2023-03-01T12:49:57.873Z,12.00
2023-03-01T12:52:35.669Z,11.70
2023-03-01T12:55:16.430Z,12.50
2023-03-01T12:57:50.140Z,11.40
2023-03-01T13:00:28.977Z,11.30
2023-03-01T13:03:03.793Z,12.20
2023-03-01T13:05:44.300Z,11.70
2023-03-01T13:08:21.954Z,12.10
2023-03-01T13:10:54.888Z,11.20
2023-03-01T13:13:23.907Z,11.30
2023-03-01T13:15:53.092Z,11.20
2023-03-01T13:18:32.629Z,11.50
2023-03-01T13:21:03.220Z,11.10
2023-03-01T13:23:35.393Z,10.80
2023-03-01T13:26:17.240Z,10.60
2023-03-01T13:28:54.245Z,10.40
2023-03-01T13:32:05.867Z,10.00
2023-03-01T13:34:52.326Z,10.00
2023-03-01T13:37:30.459Z,9.80
2023-03-01T13:40:06.500Z,9.90
2023-03-01T13:42:56.273Z,9.80
2023-03-01T13:45:40.504Z,10.20
2023-03-01T13:48:17.822Z,10.20
2023-03-01T13:50:52.485Z,9.80
2023-03-01T13:53:23.614Z,10.00
2023-03-01T13:55:55.481Z,9.60
2023-03-01T13:58:27.965Z,9.60
2023-03-01T14:01:01.896Z,9.70
2023-03-01T14:03:31.443Z,9.60
2023-03-01T14:06:15.233Z,9.40
2023-03-01T14:08:45.819Z,9.30
2023-03-01T14:11:44.566Z,8.90
2023-03-01T14:14:32.305Z,9.00
2023-03-01T14:17:10.691Z,8.80
2023-03-01T14:19:38.733Z,8.60
2023-03-01T14:22:24.527Z,8.50
2023-03-01T14:24:54.020Z,8.50
2023-03-01T14:27:22.243Z,8.50
2023-03-01T14:29:59.282Z,8.40
2023-03-01T14:32:29.096Z,8.30
2023-03-01T14:34:58.922Z,8.40
2023-03-01T14:37:29.016Z,8.50
2023-03-01T14:39:59.066Z,8.30
2023-03-01T14:42:31.123Z,8.20
2023-03-01T14:45:04.031Z,8.10
2023-03-01T14:47:34.950Z,8.10
2023-03-01T14:50:06.746Z,8.00
2023-03-01T14:52:38.351Z,7.90
2023-03-01T14:55:09.441Z,8.00
2023-03-01T14:57:37.458Z,8.00
2023-03-01T15:00:09.699Z,8.00
2023-03-01T15:02:39.811Z,7.80
2023-03-01T15:05:10.006Z,7.80
2023-03-01T15:07:42.107Z,7.70
2023-03-01T15:10:22.045Z,7.70
2023-03-01T15:12:50.487Z,7.60
2023-03-01T15:15:36.719Z,7.60
2023-03-01T15:18:09.567Z,7.60
2023-03-01T15:20:37.655Z,7.60
2023-03-01T15:23:06.430Z,7.60
2023-03-01T15:25:35.572Z,7.70
2023-03-01T15:28:05.089Z,7.60
2023-03-01T15:30:38.415Z,7.50
2023-03-01T15:33:31.057Z,7.50
2023-03-01T15:36:00.837Z,7.30
2023-03-01T15:38:40.029Z,7.30
2023-03-01T15:41:25.157Z,7.20
2023-03-01T15:43:55.419Z,7.30
2023-03-01T15:46:30.311Z,7.20
2023-03-01T15:49:00.765Z,7.20
2023-03-01T15:51:35.113Z,7.10
2023-03-01T15:54:07.098Z,7.00
2023-03-01T15:56:35.451Z,7.00
2023-03-01T15:59:04.500Z,7.00
2023-03-01T16:01:35.392Z,7.00
2023-03-01T16:04:03.716Z,6.90
2023-03-01T16:06:32.527Z,6.80
2023-03-01T16:09:01.123Z,6.80
2023-03-01T16:11:29.651Z,6.80
2023-03-01T16:13:57.967Z,6.80
2023-03-01T16:16:26.259Z,6.70
2023-03-01T16:18:56.810Z,6.70
2023-03-01T16:21:27.185Z,6.60
2023-03-01T16:23:55.774Z,6.60
2023-03-01T16:26:23.939Z,6.50
2023-03-01T16:28:51.992Z,6.50
2023-03-01T16:31:22.363Z,6.40
2023-03-01T16:33:52.379Z,6.30
2023-03-01T16:36:24.524Z,6.30
2023-03-01T16:38:53.928Z,6.30
2023-03-01T16:41:25.878Z,6.20
2023-03-01T16:43:53.942Z,6.20
2023-03-01T16:46:24.230Z,6.10
2023-03-01T16:48:53.090Z,6.00
2023-03-01T16:51:23.965Z,6.00
2023-03-01T16:53:53.210Z,5.90
2023-03-01T16:56:21.957Z,5.90
2023-03-01T16:58:50.006Z,5.80
2023-03-01T17:01:21.242Z,5.80
2023-03-01T17:03:51.416Z,5.70
2023-03-01T17:06:25.666Z,5.60
2023-03-01T17:08:53.989Z,5.60
2023-03-01T17:11:22.647Z,5.50
2023-03-01T17:13:50.827Z,5.50
2023-03-01T17:16:20.840Z,5.30
2023-03-01T17:18:49.394Z,5.30
2023-03-01T17:21:18.047Z,5.20
2023-03-01T17:23:50.239Z,5.20
2023-03-01T17:26:18.542Z,5.20
2023-03-01T17:28:51.699Z,5.20
2023-03-01T17:31:20.136Z,5.10
2023-03-01T17:33:48.285Z,5.00
2023-03-01T17:36:16.333Z,5.00
2023-03-01T17:38:44.345Z,5.00
2023-03-01T17:41:14.879Z,5.00
2023-03-01T17:43:43.084Z,4.90
2023-03-01T17:46:11.452Z,4.90
2023-03-01T17:48:40.158Z,4.80
2023-03-01T17:51:09.727Z,4.70
2023-03-01T17:53:38.387Z,4.70
2023-03-01T17:56:08.142Z,4.60
2023-03-01T17:58:39.406Z,4.60
2023-03-01T18:01:13.828Z,4.60
2023-03-01T18:03:42.889Z,4.60
2023-03-01T18:06:15.529Z,4.60
2023-03-01T18:08:45.139Z,4.60
2023-03-01T18:11:13.704Z,4.40
2023-03-01T18:13:43.435Z,4.30
2023-03-01T18:16:14.343Z,4.30
2023-03-01T18:18:45.249Z,4.20
2023-03-01T18:21:14.382Z,4.20
2023-03-01T18:23:43.053Z,4.10
2023-03-01T18:26:15.702Z,4.20
2023-03-01T18:28:47.435Z,4.10
2023-03-01T18:31:18.535Z,4.10
2023-03-01T18:33:47.314Z,4.10
2023-03-01T18:36:21.224Z,4.00
2023-03-01T18:38:49.863Z,4.00
2023-03-01T18:41:18.508Z,3.90
2023-03-01T18:43:47.928Z,3.90
2023-03-01T18:46:16.602Z,3.70
2023-03-01T18:48:45.041Z,3.70
2023-03-01T18:51:15.049Z,3.70
2023-03-01T18:53:43.040Z,3.70
2023-03-01T18:56:12.047Z,3.70
2023-03-01T18:58:40.185Z,3.80
2023-03-01T19:01:15.065Z,3.70
2023-03-01T19:03:43.124Z,3.70
2023-03-01T19:06:11.520Z,3.70
2023-03-01T19:08:41.965Z,3.70
2023-03-01T19:11:10.505Z,3.70
2023-03-01T19:13:39.866Z,3.60
2023-03-01T19:16:11.688Z,3.60
2023-03-01T19:18:41.131Z,3.60
2023-03-01T19:21:11.114Z,3.60
2023-03-01T19:23:39.614Z,3.60
2023-03-01T19:26:09.556Z,3.60
2023-03-01T19:28:39.598Z,3.60
2023-03-01T19:31:11.665Z,3.60
2023-03-01T19:33:41.294Z,3.60
2023-03-01T19:36:10.616Z,3.60
2023-03-01T19:38:39.600Z,3.50
2023-03-01T19:41:10.358Z,3.40
2023-03-01T19:43:39.119Z,3.50
2023-03-01T19:46:07.251Z,3.50
2023-03-01T19:48:37.015Z,3.50
2023-03-01T19:51:05.366Z,3.60
2023-03-01T19:53:33.366Z,3.50
2023-03-01T19:56:13.488Z,3.50
2023-03-01T19:58:41.718Z,3.40
2023-03-01T20:01:16.722Z,3.40
2023-03-01T20:03:47.027Z,3.30
2023-03-01T20:06:17.281Z,3.40
2023-03-01T20:08:45.804Z,3.30
2023-03-01T20:11:16.469Z,3.40
2023-03-01T20:13:44.576Z,3.30
2023-03-01T20:16:15.971Z,3.30
2023-03-01T20:18:45.749Z,3.30
2023-03-01T20:21:23.520Z,3.20
2023-03-01T20:23:52.952Z,3.10
2023-03-01T20:26:21.809Z,3.20
2023-03-01T20:28:52.071Z,3.20
2023-03-01T20:31:21.780Z,3.10
2023-03-01T20:33:51.506Z,3.20
2023-03-01T20:36:19.539Z,3.10
2023-03-01T20:38:47.579Z,3.00
2023-03-01T20:41:15.708Z,3.10
2023-03-01T20:43:44.117Z,3.10
2023-03-01T20:46:14.799Z,3.20
2023-03-01T20:48:44.148Z,3.20
2023-03-01T20:51:14.534Z,3.10
2023-03-01T20:53:42.998Z,3.10
2023-03-01T20:56:12.935Z,3.10
2023-03-01T20:58:41.906Z,3.00
2023-03-01T21:01:11.765Z,2.90
2023-03-01T21:03:42.722Z,2.90
2023-03-01T21:06:11.141Z,2.90
2023-03-01T21:08:40.875Z,2.90
2023-03-01T21:11:09.072Z,2.90
2023-03-01T21:13:37.937Z,2.90
2023-03-01T21:16:10.254Z,2.90
2023-03-01T21:18:38.579Z,2.90
2023-03-01T21:21:08.579Z,2.90
2023-03-01T21:23:38.168Z,2.90
2023-03-01T21:26:09.130Z,2.80
2023-03-01T21:28:38.587Z,2.80
2023-03-01T21:31:08.815Z,2.80
2023-03-01T21:33:37.387Z,2.70
2023-03-01T21:36:08.193Z,2.80
2023-03-01T21:38:38.250Z,2.80
2023-03-01T21:41:09.882Z,2.80
2023-03-01T21:43:39.546Z,2.80
2023-03-01T21:46:10.428Z,2.90
2023-03-01T21:48:40.932Z,2.80
2023-03-01T21:51:10.980Z,2.70
2023-03-01T21:53:39.448Z,2.60
2023-03-01T21:56:10.198Z,2.60
2023-03-01T21:58:38.128Z,2.60
2023-03-01T22:01:11.970Z,2.60
2023-03-01T22:03:45.394Z,2.50
2023-03-01T22:06:19.115Z,2.60
2023-03-01T22:08:49.263Z,2.50
2023-03-01T22:11:20.661Z,2.50
2023-03-01T22:13:52.018Z,2.50
2023-03-01T22:16:21.387Z,2.50
2023-03-01T22:18:49.569Z,2.50
2023-03-01T22:21:18.655Z,2.50
2023-03-01T22:23:46.997Z,2.60
2023-03-01T22:26:25.044Z,2.50
2023-03-01T22:28:54.207Z,2.50
2023-03-01T22:31:23.005Z,2.50
2023-03-01T22:33:51.700Z,2.60
2023-03-01T22:36:19.840Z,2.60
2023-03-01T22:38:48.120Z,2.40
2023-03-01T22:41:16.287Z,2.40
2023-03-01T22:43:45.699Z,2.40
2023-03-01T22:46:15.148Z,2.40
2023-03-01T22:48:43.429Z,2.30
2023-03-01T22:51:15.887Z,2.20
2023-03-01T22:53:44.245Z,2.10
2023-03-01T22:56:14.565Z,2.10
2023-03-01T22:58:42.827Z,2.20
2023-03-01T23:01:14.307Z,2.20
2023-03-01T23:03:42.531Z,2.10
2023-03-01T23:06:11.488Z,2.10
2023-03-01T23:08:40.188Z,2.00
2023-03-01T23:11:12.473Z,2.00
2023-03-01T23:13:41.368Z,2.00
2023-03-01T23:16:10.112Z,2.00
2023-03-01T23:18:40.492Z,1.90
2023-03-01T23:21:10.355Z,1.90
2023-03-01T23:23:39.106Z,1.90
2023-03-01T23:26:07.992Z,1.90
2023-03-01T23:28:40.787Z,2.10
2023-03-01T23:31:11.507Z,2.10
2023-03-01T23:33:43.265Z,2.00
2023-03-01T23:36:18.303Z,2.10
2023-03-01T23:38:47.172Z,2.00
2023-03-01T23:41:17.667Z,2.00
2023-03-01T23:43:46.389Z,2.00
2023-03-01T23:46:14.737Z,2.00
2023-03-01T23:48:45.374Z,2.00
2023-03-01T23:51:14.905Z,1.90
2023-03-01T23:53:54.867Z,1.80
2023-03-01T23:56:36.051Z,1.80
2023-03-01T23:59:05.791Z,1.90
